createdAt,value
2022-09-23T00:01:21.737Z,101363.22
2022-09-23T00:03:50.628Z,101360.28
2022-09-23T00:06:19.384Z,101353.16
2022-09-23T00:08:49.469Z,101359.66
2022-09-23T00:11:19.422Z,101356.09
2022-09-23T00:13:48.861Z,101359.66
2022-09-23T00:16:18.089Z,101362.41
2022-09-23T00:18:46.130Z,101359.88
2022-09-23T00:21:14.947Z,101351.94
2022-09-23T00:23:43.553Z,101359.88
2022-09-23T00:26:12.263Z,101352.75
2022-09-23T00:28:41.607Z,101356.31
2022-09-23T00:31:11.395Z,101347.28
2022-09-23T00:33:40.522Z,101350.00
2022-09-23T00:36:10.974Z,101345.63
2022-09-23T00:38:39.013Z,101340.19
2022-09-23T00:41:07.528Z,101335.56
2022-09-23T00:43:44.200Z,101350.00
2022-09-23T00:46:13.914Z,101335.56
2022-09-23T00:48:42.305Z,101334.56
2022-09-23T00:51:11.619Z,101348.13
2022-09-23T00:53:39.800Z,101337.19
2022-09-23T00:56:08.450Z,101289.38
2022-09-23T00:58:37.179Z,101330.91
2022-09-23T01:01:06.826Z,101336.38
2022-09-23T01:03:35.093Z,101328.19
2022-09-23T01:06:02.976Z,101332.81
2022-09-23T01:08:31.224Z,101324.63
2022-09-23T01:11:04.074Z,101330.31
2022-09-23T01:13:35.064Z,101334.72
2022-09-23T01:16:06.075Z,101326.53
2022-09-23T01:18:38.920Z,101328.41
2022-09-23T01:21:25.754Z,101334.72
2022-09-23T01:24:17.110Z,101328.41
2022-09-23T01:26:57.685Z,101320.44
2022-09-23T01:29:49.605Z,101320.44
2022-09-23T01:32:21.156Z,101315.19
2022-09-23T01:34:50.805Z,101312.72
2022-09-23T01:37:21.884Z,101316.03
2022-09-23T01:39:52.343Z,101314.38
2022-09-23T01:42:23.633Z,101269.66
2022-09-23T01:44:53.483Z,101308.06
2022-09-23T01:47:23.879Z,101313.53
2022-09-23T01:49:52.794Z,101270.72
2022-09-23T01:52:27.615Z,101313.53
2022-09-23T01:54:58.483Z,101317.94
2022-09-23T01:57:28.383Z,101309.75
2022-09-23T01:59:58.395Z,101313.09
2022-09-23T02:02:29.260Z,101278.22
2022-09-23T02:05:00.275Z,101308.47
2022-09-23T02:07:30.367Z,101306.81
2022-09-23T02:09:59.247Z,101305.97
2022-09-23T02:12:28.578Z,101301.34
2022-09-23T02:14:58.428Z,101290.47
2022-09-23T02:17:29.613Z,101300.50
2022-09-23T02:19:58.666Z,101295.25
2022-09-23T02:22:28.113Z,101291.69
2022-09-23T02:24:56.993Z,101290.63
2022-09-23T02:27:26.954Z,101293.81
2022-09-23T02:29:58.213Z,101281.06
2022-09-23T02:32:31.808Z,101292.78
2022-09-23T02:35:01.682Z,101256.03
2022-09-23T02:37:38.866Z,101284.81
2022-09-23T02:40:13.031Z,101283.50
2022-09-23T02:42:45.563Z,101275.31
2022-09-23T02:45:13.486Z,101274.72
2022-09-23T02:47:44.029Z,101268.22
2022-09-23T02:50:11.904Z,101276.41
2022-09-23T02:52:39.794Z,101266.31
2022-09-23T02:55:08.148Z,101264.66
2022-09-23T02:57:36.316Z,101262.75
2022-09-23T03:00:04.552Z,101261.06
2022-09-23T03:02:51.759Z,101261.06
2022-09-23T03:05:24.967Z,101224.34
2022-09-23T03:07:59.242Z,101264.84
2022-09-23T03:10:30.021Z,101225.63
2022-09-23T03:13:04.530Z,101262.97
2022-09-23T03:15:36.554Z,101259.41
2022-09-23T03:18:10.331Z,101255.63
2022-09-23T03:20:42.695Z,101251.28
2022-09-23T03:23:11.702Z,101252.06
2022-09-23T03:25:40.507Z,101253.72
2022-09-23T03:28:08.920Z,101252.06
2022-09-23T03:30:36.773Z,101252.06
2022-09-23T03:33:06.067Z,101236.56
2022-09-23T03:35:55.379Z,101250.38
2022-09-23T03:38:24.724Z,101242.19
2022-09-23T03:40:53.850Z,101243.88
2022-09-23T03:43:21.770Z,101243.03
2022-09-23T03:45:49.648Z,101244.69
2022-09-23T03:48:17.795Z,101245.75
2022-09-23T03:50:45.685Z,101249.31
2022-09-23T03:53:14.226Z,101247.44
2022-09-23T03:55:43.534Z,101244.69
2022-09-23T03:58:11.768Z,101242.81
2022-09-23T04:00:39.707Z,101230.69
2022-09-23T04:03:11.577Z,101246.38
2022-09-23T04:05:39.867Z,101242.81
2022-09-23T04:08:08.242Z,101241.75
2022-09-23T04:10:36.099Z,101232.72
2022-09-23T04:13:05.621Z,101238.41
2022-09-23T04:15:33.549Z,101227.28
2022-09-23T04:18:01.720Z,101222.88
2022-09-23T04:20:30.456Z,101220.13
2022-09-23T04:22:58.299Z,101219.94
2022-09-23T04:25:26.200Z,101219.09
2022-09-23T04:27:54.148Z,101216.56
2022-09-23T04:30:23.713Z,101211.13
2022-09-23T04:32:53.300Z,101210.06
2022-09-23T04:35:21.233Z,101200.19
2022-09-23T04:37:49.449Z,101205.44
2022-09-23T04:40:17.558Z,101199.56
2022-09-23T04:42:45.521Z,101211.75
2022-09-23T04:45:13.381Z,101205.44
2022-09-23T04:47:43.122Z,101203.56
2022-09-23T04:50:11.254Z,101197.25
2022-09-23T04:52:39.151Z,101201.63
2022-09-23T04:55:11.222Z,101196.16
2022-09-23T04:57:39.422Z,101192.38
2022-09-23T05:00:10.295Z,101188.81
2022-09-23T05:02:45.342Z,101183.59
2022-09-23T05:05:13.396Z,101190.72
2022-09-23T05:07:41.560Z,101186.56
2022-09-23T05:10:09.717Z,101183.59
2022-09-23T05:12:37.577Z,101191.78
2022-09-23T05:15:07.116Z,101175.94
2022-09-23T05:17:37.363Z,101196.16
2022-09-23T05:20:07.868Z,101197.25
2022-09-23T05:22:35.709Z,101194.28
2022-09-23T05:25:03.660Z,101187.97
2022-09-23T05:27:31.959Z,101187.97
2022-09-23T05:30:01.055Z,101184.44
2022-09-23T05:32:28.972Z,101186.34
2022-09-23T05:34:56.857Z,101189.06
2022-09-23T05:37:26.658Z,101190.94
2022-09-23T05:39:54.618Z,101190.13
2022-09-23T05:42:22.506Z,101193.69
2022-09-23T05:44:50.634Z,101197.47
2022-09-23T05:47:18.540Z,101201.03
2022-09-23T05:49:59.054Z,101198.09
2022-09-23T05:52:29.172Z,101202.09
2022-09-23T05:54:57.030Z,101212.31
2022-09-23T05:57:25.216Z,101195.56
2022-09-23T05:59:53.139Z,101204.97
2022-09-23T06:02:21.223Z,101200.56
2022-09-23T06:04:49.400Z,101211.91
2022-09-23T06:07:17.307Z,101210.81
2022-09-23T06:09:46.620Z,101202.63
2022-09-23T06:12:15.196Z,101205.34
2022-09-23T06:14:43.117Z,101210.00
2022-09-23T06:17:11.253Z,101216.25
2022-09-23T06:19:39.106Z,101205.34
2022-09-23T06:22:07.013Z,101210.00
2022-09-23T06:24:34.881Z,101214.63
2022-09-23T06:27:04.152Z,101202.88
2022-09-23T06:29:33.181Z,101206.44
2022-09-23T06:32:01.225Z,101202.88
2022-09-23T06:34:30.389Z,101206.44
2022-09-23T06:37:04.956Z,101202.88
2022-09-23T06:39:37.040Z,101200.97
2022-09-23T06:42:07.704Z,101199.31
2022-09-23T06:44:35.714Z,101193.84
2022-09-23T06:47:04.023Z,101196.78
2022-09-23T06:49:31.945Z,101195.94
2022-09-23T06:51:59.799Z,101200.81
2022-09-23T06:54:29.081Z,101207.09
2022-09-23T06:56:56.979Z,101206.28
2022-09-23T06:59:26.234Z,101219.09
2022-09-23T07:01:54.286Z,101213.63
2022-09-23T07:04:25.039Z,101219.94
2022-09-23T07:06:57.447Z,101212.53
2022-09-23T07:09:26.018Z,101207.09
2022-09-23T07:11:53.875Z,101206.03
2022-09-23T07:14:21.785Z,101213.38
2022-09-23T07:16:51.407Z,101204.97
2022-09-23T07:19:19.280Z,101212.31
2022-09-23T07:21:47.252Z,101208.16
2022-09-23T07:24:15.662Z,101210.66
2022-09-23T07:26:45.705Z,101215.06
2022-09-23T07:29:14.065Z,101204.34
2022-09-23T07:31:42.062Z,101216.09
2022-09-23T07:34:11.690Z,101206.28
2022-09-23T07:36:40.844Z,101207.09
2022-09-23T07:39:09.545Z,101214.22
2022-09-23T07:41:38.104Z,101211.13
2022-09-23T07:44:06.309Z,101221.34
2022-09-23T07:46:35.864Z,101219.69
2022-09-23T07:49:04.451Z,101215.06
2022-09-23T07:51:36.466Z,101216.34
2022-09-23T07:54:05.410Z,101224.09
2022-09-23T07:56:33.335Z,101221.34
2022-09-23T07:59:01.826Z,101220.50
2022-09-23T08:01:31.640Z,101216.94
2022-09-23T08:03:59.869Z,101216.09
2022-09-23T08:06:27.751Z,101217.78
2022-09-23T08:08:58.412Z,101214.22
2022-09-23T08:11:26.564Z,101219.09
2022-09-23T08:13:54.585Z,101219.09
2022-09-23T08:16:22.929Z,101215.94
2022-09-23T08:18:50.937Z,101214.22
2022-09-23T08:21:20.322Z,101213.38
2022-09-23T08:23:48.281Z,101213.38
2022-09-23T08:26:21.731Z,101211.75
2022-09-23T08:28:50.463Z,101216.09
2022-09-23T08:31:18.421Z,101211.50
2022-09-23T08:33:46.398Z,101211.50
2022-09-23T08:36:14.366Z,101207.91
2022-09-23T08:38:42.238Z,101203.31
2022-09-23T08:41:15.836Z,101197.00
2022-09-23T08:43:46.711Z,101191.53
2022-09-23T08:46:14.702Z,101193.44
2022-09-23T08:48:44.211Z,101195.09
2022-09-23T08:51:13.984Z,101171.38
2022-09-23T08:53:42.290Z,101202.47
2022-09-23T08:56:14.395Z,101209.59
2022-09-23T08:58:49.262Z,101206.88
2022-09-23T09:01:20.515Z,101208.53
2022-09-23T09:03:50.307Z,101187.22
2022-09-23T09:06:19.845Z,101178.47
2022-09-23T09:08:52.316Z,101186.91
2022-09-23T09:11:21.111Z,101194.28
2022-09-23T09:13:54.801Z,101144.84
2022-09-23T09:16:58.852Z,101190.50
2022-09-23T09:19:44.468Z,101200.56
2022-09-23T09:22:15.030Z,101197.00
2022-09-23T09:24:44.482Z,101195.09
2022-09-23T09:27:13.331Z,101194.28
2022-09-23T09:29:43.957Z,101189.91
2022-09-23T09:32:15.217Z,101197.84
2022-09-23T09:34:45.555Z,101193.22
2022-09-23T09:37:15.993Z,101191.31
2022-09-23T09:39:43.895Z,101178.53
2022-09-23T09:42:14.931Z,101177.69
2022-09-23T09:44:47.914Z,101178.53
2022-09-23T09:47:26.919Z,101174.94
2022-09-23T09:50:00.800Z,101165.09
2022-09-23T09:52:29.981Z,101169.72
2022-09-23T09:55:01.422Z,101162.34
2022-09-23T09:57:35.226Z,101168.66
2022-09-23T10:00:35.591Z,101166.97
2022-09-23T10:03:05.072Z,101176.00
2022-09-23T10:05:33.952Z,101167.81
2022-09-23T10:08:22.884Z,101165.09
2022-09-23T10:10:54.826Z,101159.63
2022-09-23T10:13:24.075Z,101163.19
2022-09-23T10:15:54.890Z,101157.75
2022-09-23T10:18:27.436Z,101163.81
2022-09-23T10:21:01.453Z,101161.09
2022-09-23T10:23:29.820Z,101155.84
2022-09-23T10:25:58.153Z,101156.69
2022-09-23T10:28:48.345Z,101166.75
2022-09-23T10:31:24.511Z,101164.03
2022-09-23T10:33:55.041Z,101156.91
2022-09-23T10:36:23.628Z,101156.91
2022-09-23T10:38:54.091Z,101154.16
2022-09-23T10:41:47.058Z,101143.94
2022-09-23T10:44:45.854Z,101156.47
2022-09-23T10:47:20.269Z,101144.94
2022-09-23T10:50:09.886Z,101146.81
2022-09-23T10:52:52.999Z,101108.16
2022-09-23T10:55:29.799Z,101140.31
2022-09-23T10:58:06.879Z,101143.03
2022-09-23T11:00:41.079Z,101141.38
2022-09-23T11:03:26.410Z,101134.84
2022-09-23T11:06:01.724Z,101132.34
2022-09-23T11:08:43.645Z,101135.06
2022-09-23T11:11:17.642Z,101135.06
2022-09-23T11:13:54.823Z,101128.56
2022-09-23T11:16:27.586Z,101131.28
2022-09-23T11:19:23.904Z,101122.25
2022-09-23T11:22:01.282Z,101123.09
2022-09-23T11:25:04.944Z,101125.00
2022-09-23T11:27:41.411Z,101122.47
2022-09-23T11:30:13.377Z,101123.09
2022-09-23T11:35:35.762Z,101108.47
2022-09-23T11:38:07.321Z,101114.91
2022-09-23T11:40:39.865Z,101100.28
2022-09-23T11:43:18.421Z,101101.47
2022-09-23T11:45:47.557Z,101098.09
2022-09-23T11:48:17.839Z,101094.53
2022-09-23T11:50:49.283Z,101102.72
2022-09-23T11:53:19.520Z,101094.28
2022-09-23T11:55:57.244Z,101092.63
2022-09-23T11:58:27.774Z,101082.78
2022-09-23T12:01:01.202Z,101080.03
2022-09-23T12:03:43.174Z,101079.06
2022-09-23T12:06:16.367Z,101086.34
2022-09-23T12:08:45.315Z,101082.78
2022-09-23T12:11:21.542Z,101078.16
2022-09-23T12:13:51.458Z,101076.25
2022-09-23T12:16:53.802Z,101077.31
2022-09-23T12:19:34.155Z,101077.31
2022-09-23T12:22:14.773Z,101074.59
2022-09-23T12:24:47.724Z,101073.53
2022-09-23T12:27:23.947Z,101065.78
2022-09-23T12:29:56.051Z,101067.22
2022-09-23T12:32:25.050Z,101069.13
2022-09-23T12:34:52.972Z,101065.56
2022-09-23T12:37:28.064Z,101040.78
2022-09-23T12:39:59.497Z,101060.94
2022-09-23T12:42:30.941Z,101057.38
2022-09-23T12:45:34.653Z,101055.69
2022-09-23T12:48:04.146Z,101052.97
2022-09-23T12:50:51.584Z,101058.44
2022-09-23T12:53:57.320Z,101062.84
2022-09-23T12:57:04.619Z,101056.31
2022-09-23T12:59:33.813Z,101053.81
2022-09-23T13:02:25.586Z,101052.97
2022-09-23T13:05:27.466Z,101051.69
2022-09-23T13:07:59.366Z,101057.97
2022-09-23T13:10:29.834Z,101045.97
2022-09-23T13:12:57.710Z,101041.13
2022-09-23T13:15:30.309Z,101039.47
2022-09-23T13:18:26.209Z,101042.19
2022-09-23T13:20:56.470Z,101043.88
2022-09-23T13:23:25.341Z,101044.94
2022-09-23T13:25:55.732Z,101043.25
2022-09-23T13:28:40.729Z,101035.91
2022-09-23T13:31:15.027Z,101042.41
2022-09-23T13:33:44.169Z,101036.97
2022-09-23T13:36:14.171Z,101028.63
2022-09-23T13:38:42.467Z,101032.59
2022-09-23T13:41:14.931Z,101034.72
2022-09-23T13:43:43.681Z,101032.34
2022-09-23T13:46:14.542Z,101033.41
2022-09-23T13:48:44.357Z,101033.41
2022-09-23T13:51:12.948Z,101036.13
2022-09-23T13:53:40.869Z,101030.66
2022-09-23T13:56:13.022Z,101038.84
2022-09-23T13:58:43.404Z,101031.50
2022-09-23T14:01:17.006Z,101028.19
2022-09-23T14:03:45.242Z,101023.31
2022-09-23T14:06:14.724Z,101018.94
2022-09-23T14:08:43.474Z,101015.38
2022-09-23T14:11:15.985Z,101020.59
2022-09-23T14:13:45.621Z,101008.84
2022-09-23T14:16:15.129Z,100965.53
2022-09-23T14:18:45.244Z,101003.38
2022-09-23T14:21:29.366Z,101004.22
2022-09-23T14:23:57.476Z,101004.22
2022-09-23T14:26:25.745Z,100997.91
2022-09-23T14:28:55.082Z,100990.81
2022-09-23T14:31:23.912Z,100996.28
2022-09-23T14:33:51.912Z,100987.25
2022-09-23T14:36:37.326Z,100984.53
2022-09-23T14:39:05.724Z,100988.09
2022-09-23T14:41:36.061Z,100979.06
2022-09-23T14:44:05.453Z,100984.53
2022-09-23T14:46:35.003Z,100983.47
2022-09-23T14:49:05.790Z,100986.19
2022-09-23T14:51:37.115Z,100985.34
2022-09-23T14:54:42.194Z,100983.47
2022-09-23T14:57:24.430Z,100977.38
2022-09-23T14:59:54.896Z,100970.88
2022-09-23T15:02:31.132Z,100974.66
2022-09-23T15:05:18.135Z,100979.06
2022-09-23T15:07:49.790Z,100973.59
2022-09-23T15:10:23.640Z,100968.16
2022-09-23T15:12:53.460Z,100960.19
2022-09-23T15:15:24.375Z,100961.00
2022-09-23T15:17:52.260Z,100959.97
2022-09-23T15:20:23.956Z,100951.78
2022-09-23T15:22:53.679Z,100953.19
2022-09-23T15:25:22.625Z,100956.75
2022-09-23T15:27:57.932Z,100962.81
2022-09-23T15:30:27.303Z,100960.94
2022-09-23T15:32:55.288Z,100952.34
2022-09-23T15:35:26.679Z,100962.34
2022-09-23T15:37:57.091Z,100946.75
2022-09-23T15:40:25.836Z,100949.19
2022-09-23T15:42:55.454Z,100959.84
2022-09-23T15:45:30.144Z,100960.09
2022-09-23T15:47:59.706Z,100958.41
2022-09-23T15:50:28.331Z,100953.81
2022-09-23T15:52:56.309Z,100955.47
2022-09-23T15:55:24.305Z,100952.97
2022-09-23T15:57:52.570Z,100950.00
2022-09-23T16:00:21.348Z,100955.47
2022-09-23T16:02:50.657Z,100959.03
2022-09-23T16:05:22.748Z,100957.94
2022-09-23T16:07:52.337Z,100959.63
2022-09-23T16:10:21.701Z,100953.09
2022-09-23T16:12:49.894Z,100953.09
2022-09-23T16:15:19.283Z,100957.50
2022-09-23T16:17:47.563Z,100961.06
2022-09-23T16:20:17.858Z,100956.44
2022-09-23T16:22:47.932Z,100958.91
2022-09-23T16:25:15.861Z,100951.56
2022-09-23T16:27:43.785Z,100946.94
2022-09-23T16:30:12.675Z,100947.78
2022-09-23T16:32:40.563Z,100951.09
2022-09-23T16:35:09.796Z,100947.78
2022-09-23T16:37:39.373Z,100952.56
2022-09-23T16:40:09.744Z,100962.41
2022-09-23T16:42:38.317Z,100957.16
2022-09-23T16:45:08.541Z,100959.47
2022-09-23T16:47:36.765Z,100953.16
2022-09-23T16:50:05.198Z,100946.66
2022-09-23T16:52:33.113Z,100951.00
2022-09-23T16:55:02.449Z,100954.59
2022-09-23T16:57:30.713Z,100955.41
2022-09-23T17:00:16.177Z,100954.59
2022-09-23T17:03:01.678Z,100951.84
2022-09-23T17:05:29.638Z,100948.28
2022-09-23T17:07:58.246Z,100953.75
2022-09-23T17:10:27.558Z,100946.66
2022-09-23T17:12:55.562Z,100957.31
2022-09-23T17:15:23.488Z,100960.88
2022-09-23T17:17:51.677Z,100960.88
2022-09-23T17:20:20.153Z,100954.59
2022-09-23T17:22:48.259Z,100956.47
2022-09-23T17:25:16.520Z,100952.91
2022-09-23T17:27:45.834Z,100937.84
2022-09-23T17:30:14.564Z,100940.34
2022-09-23T17:32:42.495Z,100936.53
2022-09-23T17:35:10.895Z,100932.16
2022-09-23T17:37:39.224Z,100935.72
2022-09-23T17:40:08.303Z,100934.06
2022-09-23T17:42:41.023Z,100925.03
2022-09-23T17:45:12.529Z,100920.41
2022-09-23T17:47:41.856Z,100926.44
2022-09-23T17:50:10.332Z,100922.06
2022-09-23T17:52:38.244Z,100919.34
2022-09-23T17:55:07.340Z,100928.34
2022-09-23T17:57:35.589Z,100924.81
2022-09-23T18:00:03.909Z,100922.88
2022-09-23T18:02:33.238Z,100924.81
2022-09-23T18:05:01.473Z,100928.59
2022-09-23T18:07:29.405Z,100928.59
2022-09-23T18:09:57.318Z,100925.03
2022-09-23T18:12:25.238Z,100919.56
2022-09-23T18:14:53.238Z,100916.84
2022-09-23T18:17:21.395Z,100930.50
2022-09-23T18:19:50.726Z,100924.19
2022-09-23T18:22:18.679Z,100917.91
2022-09-23T18:24:46.653Z,100921.47
2022-09-23T18:27:14.608Z,100930.72
2022-09-23T18:29:42.567Z,100930.72
2022-09-23T18:32:14.098Z,100933.44
2022-09-23T18:34:42.396Z,100934.28
2022-09-23T18:37:16.056Z,100929.44
2022-09-23T18:39:44.688Z,100942.47
2022-09-23T18:42:13.081Z,100931.56
2022-09-23T18:44:41.209Z,100930.50
2022-09-23T18:47:29.393Z,100934.06
2022-09-23T18:50:14.549Z,100934.88
2022-09-23T18:52:43.837Z,100933.00
2022-09-23T18:55:12.689Z,100939.53
2022-09-23T18:57:41.209Z,100943.91
2022-09-23T19:00:11.616Z,100943.66
2022-09-23T19:02:39.556Z,100941.75
2022-09-23T19:05:08.547Z,100937.97
2022-09-23T19:07:36.791Z,100941.53
2022-09-23T19:10:06.976Z,100943.78
2022-09-23T19:12:34.843Z,100937.28
2022-09-23T19:15:02.782Z,100939.16
2022-09-23T19:17:31.044Z,100947.97
2022-09-23T19:19:59.089Z,100939.28
2022-09-23T19:22:27.113Z,100941.66
2022-09-23T19:24:55.006Z,100940.13
2022-09-23T19:27:24.341Z,100943.69
2022-09-23T19:29:52.240Z,100948.09
2022-09-23T19:32:20.258Z,100948.94
2022-09-23T19:34:48.409Z,100938.22
2022-09-23T19:37:16.576Z,100942.63
2022-09-23T19:39:44.706Z,100932.53
2022-09-23T19:42:12.714Z,100928.75
2022-09-23T19:44:42.338Z,100925.19
2022-09-23T19:47:15.470Z,100929.81
2022-09-23T19:49:43.518Z,100927.09
2022-09-23T19:52:11.419Z,100925.41
2022-09-23T19:54:39.363Z,100924.34
2022-09-23T19:57:08.997Z,100923.53
2022-09-23T19:59:37.713Z,100924.34
2022-09-23T20:02:07.051Z,100918.88
2022-09-23T20:04:35.432Z,100921.63
2022-09-23T20:07:04.495Z,100924.34
2022-09-23T20:09:32.376Z,100913.44
2022-09-23T20:12:00.305Z,100918.06
2022-09-23T20:14:28.270Z,100916.16
2022-09-23T20:16:56.425Z,100911.75
2022-09-23T20:19:25.710Z,100903.56
2022-09-23T20:22:07.477Z,100911.75
2022-09-23T20:24:35.403Z,100905.47
2022-09-23T20:27:11.234Z,100911.16
2022-09-23T20:29:39.194Z,100906.78
2022-09-23T20:32:07.161Z,100914.97
2022-09-23T20:34:36.432Z,100906.78
2022-09-23T20:37:05.598Z,100913.03
2022-09-23T20:39:33.493Z,100914.13
2022-09-23T20:42:02.648Z,100905.13
2022-09-23T20:44:30.583Z,100906.16
2022-09-23T20:46:58.493Z,100908.06
2022-09-23T20:49:26.473Z,100893.22
2022-09-23T20:51:55.824Z,100896.31
2022-09-23T20:54:23.771Z,100891.91
2022-09-23T20:56:52.923Z,100900.09
2022-09-23T20:59:20.845Z,100894.63
2022-09-23T21:01:51.939Z,100896.78
2022-09-23T21:04:19.957Z,100903.09
2022-09-23T21:06:48.161Z,100888.59
2022-09-23T21:09:17.469Z,100895.97
2022-09-23T21:11:45.402Z,100895.13
2022-09-23T21:14:13.357Z,100902.25
2022-09-23T21:16:41.616Z,100892.16
2022-09-23T21:19:09.554Z,100894.06
2022-09-23T21:21:37.521Z,100892.41
2022-09-23T21:24:39.764Z,100891.34
2022-09-23T21:26:55.366Z,100883.59
2022-09-23T21:29:23.278Z,100891.34
2022-09-23T21:31:51.248Z,100881.56
2022-09-23T21:34:19.452Z,100883.38
2022-09-23T21:36:48.087Z,100884.44
2022-09-23T21:39:16.101Z,100880.88
2022-09-23T21:41:44.072Z,100884.44
2022-09-23T21:44:13.425Z,100883.59
2022-09-23T21:46:41.389Z,100880.03
2022-09-23T21:49:09.493Z,100877.31
2022-09-23T21:51:40.532Z,100887.38
2022-09-23T21:54:10.354Z,100883.03
2022-09-23T21:56:38.267Z,100885.75
2022-09-23T21:59:07.692Z,100890.38
2022-09-23T22:01:40.124Z,100889.53
2022-09-23T22:04:10.325Z,100896.66
2022-09-23T22:06:40.350Z,100885.34
2022-09-23T22:09:09.899Z,100888.47
2022-09-23T22:11:55.709Z,100887.22
2022-09-23T22:14:25.515Z,100889.53
2022-09-23T22:16:55.972Z,100882.41
2022-09-23T22:19:25.178Z,100889.78
2022-09-23T22:21:53.663Z,100893.34
2022-09-23T22:24:21.628Z,100889.78
2022-09-23T22:26:49.535Z,100881.56
2022-09-23T22:29:34.569Z,100887.88
2022-09-23T22:32:21.378Z,100884.09
2022-09-23T22:34:50.932Z,100879.69
2022-09-23T22:37:21.224Z,100879.69
2022-09-23T22:39:49.108Z,100880.50
2022-09-23T22:42:17.227Z,100878.84
2022-09-23T22:44:45.564Z,100877.16
2022-09-23T22:47:15.275Z,100870.06
2022-09-23T22:49:43.188Z,100878.84
2022-09-23T22:52:11.349Z,100879.88
2022-09-23T22:54:39.282Z,100884.31
2022-09-23T22:57:07.557Z,100877.97
2022-09-23T22:59:35.467Z,100871.69
2022-09-23T23:02:03.575Z,100875.50
2022-09-23T23:04:33.599Z,100879.03
2022-09-23T23:07:02.661Z,100882.88
2022-09-23T23:09:30.539Z,100889.16
2022-09-23T23:11:58.455Z,100882.03
2022-09-23T23:14:27.981Z,100883.91
2022-09-23T23:16:56.739Z,100872.78
2022-09-23T23:19:24.825Z,100879.28
2022-09-23T23:21:54.078Z,100871.09
2022-09-23T23:24:23.595Z,100873.00
2022-09-23T23:26:51.677Z,100873.22
2022-09-23T23:29:20.332Z,100869.66
2022-09-23T23:31:48.320Z,100874.28
2022-09-23T23:34:17.616Z,100874.28
2022-09-23T23:36:45.912Z,100866.94
2022-09-23T23:39:15.292Z,100858.97
2022-09-23T23:41:43.197Z,100865.28
2022-09-23T23:44:12.913Z,100863.38
2022-09-23T23:46:41.201Z,100856.00
2022-09-23T23:49:09.221Z,100852.44
2022-09-23T23:51:37.155Z,100858.75
2022-09-23T23:54:05.344Z,100856.00
2022-09-23T23:56:34.707Z,100855.19
2022-09-23T23:59:03.491Z,100857.06
